createdAt,value
2023-03-31T00:01:18.707Z,6.73
2023-03-31T00:03:05.689Z,6.46
2023-03-31T00:04:40.129Z,6.56
2023-03-31T00:06:13.421Z,6.13
2023-03-31T00:08:01.705Z,6.60
2023-03-31T00:09:25.837Z,6.12
2023-03-31T00:11:06.599Z,6.64
2023-03-31T00:12:44.732Z,6.16
2023-03-31T00:14:18.249Z,6.54
2023-03-31T00:15:56.103Z,5.80
2023-03-31T00:17:33.147Z,6.02
2023-03-31T00:19:02.625Z,6.44
2023-03-31T00:20:38.205Z,6.55
2023-03-31T00:22:11.625Z,6.35
2023-03-31T00:23:54.468Z,6.45
2023-03-31T00:25:31.061Z,6.37
2023-03-31T00:27:11.349Z,6.83
2023-03-31T00:28:52.322Z,7.18
2023-03-31T00:30:33.770Z,6.92
2023-03-31T00:32:19.133Z,8.06
2023-03-31T00:34:06.367Z,9.00
2023-03-31T00:35:29.185Z,8.99
2023-03-31T00:36:56.389Z,8.91
2023-03-31T00:38:22.980Z,9.09
2023-03-31T00:39:46.519Z,9.58
2023-03-31T00:41:10.509Z,9.44
2023-03-31T00:42:44.015Z,9.65
2023-03-31T00:44:10.625Z,9.25
2023-03-31T00:45:56.766Z,9.57
2023-03-31T00:47:32.734Z,10.77
2023-03-31T00:48:57.513Z,10.18
2023-03-31T00:50:26.762Z,11.66
2023-03-31T00:52:03.582Z,11.75
2023-03-31T00:53:29.864Z,10.80
2023-03-31T00:55:10.602Z,11.04
2023-03-31T00:56:46.576Z,11.01
2023-03-31T00:58:15.264Z,12.44
2023-03-31T00:59:57.260Z,12.16
2023-03-31T01:01:30.999Z,12.58
2023-03-31T01:03:16.214Z,12.34
2023-03-31T01:04:55.002Z,12.75
2023-03-31T01:06:28.710Z,12.27
2023-03-31T01:08:02.539Z,12.01
2023-03-31T01:09:43.114Z,11.84
2023-03-31T01:11:31.088Z,11.81
2023-03-31T01:13:10.792Z,12.73
2023-03-31T01:14:46.418Z,12.82
2023-03-31T01:16:26.830Z,12.78
2023-03-31T01:18:12.117Z,12.39
2023-03-31T01:19:47.362Z,12.44
2023-03-31T01:21:23.324Z,12.04
2023-03-31T01:23:11.073Z,11.78
2023-03-31T01:24:51.649Z,12.97
2023-03-31T01:26:28.758Z,13.04
2023-03-31T01:28:13.297Z,13.33
2023-03-31T01:29:46.578Z,13.07
2023-03-31T01:31:32.355Z,13.94
2023-03-31T01:33:19.668Z,13.19
2023-03-31T01:34:41.832Z,12.62
2023-03-31T01:36:17.965Z,12.93
2023-03-31T01:37:44.309Z,13.15
2023-03-31T01:39:17.735Z,12.89
2023-03-31T01:41:02.792Z,13.34
2023-03-31T01:42:38.766Z,13.61
2023-03-31T01:44:24.456Z,13.79
2023-03-31T01:45:50.750Z,14.12
2023-03-31T01:47:24.502Z,12.97
2023-03-31T01:48:57.870Z,12.22
2023-03-31T01:50:32.698Z,13.56
2023-03-31T01:52:18.472Z,13.25
2023-03-31T01:53:54.441Z,14.69
2023-03-31T01:55:40.126Z,14.23
2023-03-31T01:57:25.253Z,14.46
2023-03-31T01:58:54.850Z,13.31
2023-03-31T02:00:48.492Z,14.11
2023-03-31T02:02:24.297Z,13.56
2023-03-31T02:04:00.106Z,14.06
2023-03-31T02:05:54.641Z,13.75
2023-03-31T02:07:27.857Z,14.07
2023-03-31T02:09:04.137Z,15.19
2023-03-31T02:10:37.496Z,15.13
2023-03-31T02:12:13.450Z,14.02
2023-03-31T02:13:47.307Z,14.53
2023-03-31T02:15:23.137Z,14.49
2023-03-31T02:16:59.157Z,14.53
2023-03-31T02:18:26.271Z,14.03
2023-03-31T02:20:16.643Z,14.56
2023-03-31T02:21:50.185Z,13.78
2023-03-31T02:23:43.894Z,13.99
2023-03-31T02:25:19.685Z,14.91
2023-03-31T02:26:43.460Z,14.57
2023-03-31T02:28:28.547Z,14.16
2023-03-31T02:30:03.860Z,14.13
2023-03-31T02:31:39.997Z,14.50
2023-03-31T02:33:16.135Z,16.10
2023-03-31T02:34:54.199Z,17.03
2023-03-31T02:36:35.950Z,16.83
2023-03-31T02:38:11.884Z,17.87
2023-03-31T02:39:56.994Z,18.02
2023-03-31T02:41:41.993Z,18.00
2023-03-31T02:43:22.921Z,17.06
2023-03-31T02:45:10.441Z,17.49
2023-03-31T02:46:43.943Z,18.02
2023-03-31T02:48:19.627Z,18.76
2023-03-31T02:49:52.691Z,19.40
2023-03-31T02:51:26.818Z,18.50
2023-03-31T02:52:50.836Z,19.01
2023-03-31T02:54:26.504Z,18.07
2023-03-31T02:56:03.088Z,17.33
2023-03-31T02:57:49.109Z,17.71
2023-03-31T02:59:34.585Z,18.07
2023-03-31T03:01:10.251Z,17.72
2023-03-31T03:02:51.284Z,18.21
2023-03-31T03:04:25.278Z,19.44
2023-03-31T03:06:06.114Z,19.99
2023-03-31T03:07:58.785Z,20.47
2023-03-31T03:09:32.701Z,18.59
2023-03-31T03:11:18.401Z,17.52
2023-03-31T03:13:03.385Z,17.96
2023-03-31T03:14:28.559Z,18.08
2023-03-31T03:16:01.844Z,18.28
2023-03-31T03:17:33.607Z,19.24
2023-03-31T03:19:15.510Z,18.33
2023-03-31T03:20:53.260Z,17.76
2023-03-31T03:22:43.660Z,16.19
2023-03-31T03:24:24.229Z,16.41
2023-03-31T03:26:09.396Z,16.81
2023-03-31T03:27:54.607Z,17.59
2023-03-31T03:29:30.100Z,22.64
2023-03-31T03:31:14.587Z,29.52
2023-03-31T03:33:08.287Z,41.58
2023-03-31T03:34:52.167Z,41.11
2023-03-31T03:36:41.564Z,41.53
2023-03-31T03:38:14.812Z,58.83
2023-03-31T03:39:59.679Z,46.64
2023-03-31T03:41:25.782Z,27.92
2023-03-31T03:43:08.874Z,34.49
2023-03-31T03:44:46.426Z,24.74
2023-03-31T03:46:10.345Z,21.63
2023-03-31T03:47:56.439Z,23.49
2023-03-31T03:49:29.968Z,16.42
2023-03-31T03:51:14.957Z,20.12
2023-03-31T03:52:48.394Z,19.83
2023-03-31T03:54:41.992Z,16.98
2023-03-31T03:56:03.472Z,29.65
2023-03-31T03:57:47.543Z,32.05
2023-03-31T03:59:21.175Z,34.57
2023-03-31T04:00:50.580Z,30.46
2023-03-31T04:02:26.848Z,35.32
2023-03-31T04:04:13.318Z,39.53
2023-03-31T04:05:58.450Z,32.60
2023-03-31T04:07:29.914Z,17.97
2023-03-31T04:09:03.923Z,20.32
2023-03-31T04:10:39.967Z,25.87
2023-03-31T04:12:13.225Z,23.11
2023-03-31T04:13:56.648Z,17.67
2023-03-31T04:15:30.589Z,16.94
2023-03-31T04:17:03.857Z,18.20
2023-03-31T04:18:39.659Z,15.87
2023-03-31T04:20:25.139Z,14.74
2023-03-31T04:22:02.316Z,12.63
2023-03-31T04:23:38.447Z,22.88
2023-03-31T04:25:02.844Z,20.09
2023-03-31T04:26:56.590Z,21.28
2023-03-31T04:28:29.999Z,15.71
2023-03-31T04:30:14.953Z,17.40
2023-03-31T04:31:59.887Z,19.00
2023-03-31T04:33:23.591Z,9.54
2023-03-31T04:34:58.372Z,11.79
2023-03-31T04:36:20.053Z,20.58
2023-03-31T04:38:10.357Z,12.14
2023-03-31T04:39:34.742Z,22.28
2023-03-31T04:41:15.474Z,15.82
2023-03-31T04:42:51.225Z,10.64
2023-03-31T04:44:26.931Z,18.93
2023-03-31T04:46:02.383Z,14.63
2023-03-31T04:47:48.891Z,9.11
2023-03-31T04:49:29.556Z,11.12
2023-03-31T04:51:04.277Z,15.32
2023-03-31T04:52:39.979Z,14.47
2023-03-31T04:54:20.778Z,12.33
2023-03-31T04:56:06.532Z,15.24
2023-03-31T04:57:30.905Z,29.24
2023-03-31T04:59:04.371Z,10.65
2023-03-31T05:00:54.289Z,9.24
2023-03-31T05:02:35.461Z,14.25
2023-03-31T05:04:09.336Z,14.95
2023-03-31T05:05:46.389Z,12.21
2023-03-31T05:07:12.708Z,17.48
2023-03-31T05:08:49.012Z,14.66
2023-03-31T05:10:13.177Z,8.47
2023-03-31T05:11:35.285Z,7.84
2023-03-31T05:13:10.095Z,7.63
2023-03-31T05:15:00.364Z,9.39
2023-03-31T05:16:52.522Z,8.74
2023-03-31T05:18:33.265Z,8.53
2023-03-31T05:20:13.874Z,8.37
2023-03-31T05:21:54.957Z,10.58
2023-03-31T05:23:28.329Z,10.45
2023-03-31T05:25:13.335Z,9.55
2023-03-31T05:27:01.468Z,10.13
2023-03-31T05:28:44.308Z,10.27
2023-03-31T05:30:18.249Z,8.77
2023-03-31T05:31:58.693Z,9.55
2023-03-31T05:33:47.045Z,9.56
2023-03-31T05:35:20.507Z,8.95
2023-03-31T05:36:55.040Z,8.24
2023-03-31T05:38:41.832Z,9.95
2023-03-31T05:40:15.319Z,9.57
2023-03-31T05:42:00.016Z,9.15
2023-03-31T05:43:35.480Z,8.59
2023-03-31T05:45:18.483Z,9.41
2023-03-31T05:47:03.511Z,9.64
2023-03-31T05:48:38.040Z,9.37
2023-03-31T05:50:14.041Z,9.18
2023-03-31T05:52:07.766Z,10.06
2023-03-31T05:53:48.482Z,10.57
2023-03-31T05:55:33.882Z,10.64
2023-03-31T05:57:18.813Z,12.26
2023-03-31T05:59:12.121Z,13.36
2023-03-31T06:00:57.171Z,16.10
2023-03-31T06:02:51.617Z,11.87
2023-03-31T06:04:37.108Z,10.31
2023-03-31T06:06:24.585Z,9.47
2023-03-31T06:07:58.084Z,8.92
2023-03-31T06:09:46.343Z,8.54
2023-03-31T06:11:19.736Z,9.46
2023-03-31T06:12:43.854Z,8.54
2023-03-31T06:14:28.621Z,8.82
2023-03-31T06:16:04.294Z,8.50
2023-03-31T06:17:55.872Z,8.31
2023-03-31T06:19:40.939Z,8.32
2023-03-31T06:21:26.025Z,8.59
2023-03-31T06:23:11.228Z,8.52
2023-03-31T06:24:44.446Z,8.57
2023-03-31T06:26:15.530Z,8.91
2023-03-31T06:28:00.506Z,8.53
2023-03-31T06:29:34.182Z,8.62
2023-03-31T06:31:14.765Z,8.08
2023-03-31T06:32:48.621Z,8.37
2023-03-31T06:34:21.905Z,7.88
2023-03-31T06:36:06.665Z,8.14
2023-03-31T06:37:53.069Z,8.31
2023-03-31T06:39:28.227Z,7.84
2023-03-31T06:41:01.627Z,8.28
2023-03-31T06:42:36.976Z,7.56
2023-03-31T06:44:12.843Z,7.44
2023-03-31T06:46:00.329Z,7.71
2023-03-31T06:47:26.572Z,7.33
2023-03-31T06:49:08.890Z,6.81
2023-03-31T06:50:58.068Z,6.80
2023-03-31T06:52:43.352Z,6.91
2023-03-31T06:54:17.199Z,7.44
2023-03-31T06:55:58.041Z,7.02
2023-03-31T06:57:26.853Z,7.34
2023-03-31T06:58:58.589Z,7.47
2023-03-31T07:00:33.964Z,6.65
2023-03-31T07:02:19.166Z,7.60
2023-03-31T07:03:48.523Z,6.66
2023-03-31T07:05:41.537Z,7.32
2023-03-31T07:07:17.344Z,7.45
2023-03-31T07:09:09.328Z,7.69
2023-03-31T07:10:54.623Z,7.21
2023-03-31T07:12:31.106Z,8.04
2023-03-31T07:14:04.538Z,7.52
2023-03-31T07:15:38.153Z,7.50
2023-03-31T07:17:11.433Z,7.64
2023-03-31T07:19:00.066Z,8.02
2023-03-31T07:20:45.216Z,7.87
2023-03-31T07:22:29.491Z,6.98
2023-03-31T07:24:10.670Z,7.03
2023-03-31T07:26:00.037Z,7.12
2023-03-31T07:27:33.272Z,7.50
2023-03-31T07:29:02.432Z,7.25
2023-03-31T07:30:47.707Z,6.77
2023-03-31T07:32:29.233Z,7.02
2023-03-31T07:34:05.252Z,7.21
2023-03-31T07:35:36.217Z,7.22
2023-03-31T07:37:21.292Z,7.47
2023-03-31T07:38:52.765Z,6.98
2023-03-31T07:40:27.437Z,6.95
2023-03-31T07:42:03.713Z,7.63
2023-03-31T07:43:48.806Z,7.65
2023-03-31T07:45:37.832Z,8.04
2023-03-31T07:47:11.330Z,7.49
2023-03-31T07:49:06.483Z,7.80
2023-03-31T07:50:39.829Z,8.56
2023-03-31T07:52:24.927Z,7.08
2023-03-31T07:54:18.604Z,7.95
2023-03-31T07:56:03.524Z,7.87
2023-03-31T07:57:51.607Z,8.62
2023-03-31T07:59:24.888Z,8.17
2023-03-31T08:01:05.592Z,7.86
2023-03-31T08:02:48.572Z,8.22
2023-03-31T08:04:34.008Z,7.62
2023-03-31T08:06:14.741Z,7.24
2023-03-31T08:07:55.809Z,7.28
2023-03-31T08:09:37.251Z,7.74
2023-03-31T08:11:22.301Z,7.37
2023-03-31T08:13:08.733Z,7.83
2023-03-31T08:14:54.482Z,7.59
2023-03-31T08:16:39.520Z,7.48
2023-03-31T08:18:21.923Z,8.02
2023-03-31T08:20:08.035Z,7.52
2023-03-31T08:21:42.181Z,7.51
2023-03-31T08:23:15.706Z,7.41
2023-03-31T08:25:00.671Z,7.43
2023-03-31T08:26:24.163Z,7.85
2023-03-31T08:27:57.589Z,8.10
2023-03-31T08:29:31.279Z,7.51
2023-03-31T08:30:57.691Z,8.84
2023-03-31T08:32:31.315Z,8.05
2023-03-31T08:34:11.881Z,7.91
2023-03-31T08:35:45.450Z,7.53
2023-03-31T08:37:26.078Z,6.96
2023-03-31T08:39:06.858Z,7.49
2023-03-31T08:40:40.593Z,7.32
2023-03-31T08:42:27.125Z,7.25
2023-03-31T08:44:00.489Z,7.54
2023-03-31T08:45:46.826Z,7.91
2023-03-31T08:47:27.678Z,7.62
2023-03-31T08:49:12.794Z,7.47
2023-03-31T08:50:46.095Z,7.60
2023-03-31T08:52:19.406Z,7.21
2023-03-31T08:53:55.949Z,7.16
2023-03-31T08:55:41.230Z,7.33
2023-03-31T08:57:21.831Z,7.46
2023-03-31T08:59:09.906Z,7.32
2023-03-31T09:00:43.674Z,7.43
2023-03-31T09:02:18.478Z,7.59
2023-03-31T09:04:06.385Z,7.70
2023-03-31T09:05:49.385Z,7.57
2023-03-31T09:07:33.405Z,8.03
2023-03-31T09:09:08.477Z,7.30
2023-03-31T09:10:37.924Z,7.50
2023-03-31T09:12:07.890Z,7.80
2023-03-31T09:13:48.876Z,8.36
2023-03-31T09:15:34.126Z,7.41
2023-03-31T09:17:15.396Z,8.36
2023-03-31T09:18:37.538Z,7.66
2023-03-31T09:20:11.118Z,7.38
2023-03-31T09:21:47.046Z,7.95
2023-03-31T09:23:08.918Z,7.71
2023-03-31T09:24:33.105Z,7.86
2023-03-31T09:25:55.147Z,7.76
2023-03-31T09:27:19.435Z,7.59
2023-03-31T09:28:43.815Z,7.81
2023-03-31T09:30:28.761Z,7.06
2023-03-31T09:31:54.883Z,7.12
2023-03-31T09:33:35.737Z,7.94
2023-03-31T09:35:12.448Z,7.54
2023-03-31T09:36:38.685Z,7.62
2023-03-31T09:38:02.525Z,7.72
2023-03-31T09:39:31.424Z,7.90
2023-03-31T09:40:52.953Z,7.48
2023-03-31T09:42:14.820Z,7.97
2023-03-31T09:44:00.154Z,7.69
2023-03-31T09:45:39.545Z,7.71
2023-03-31T09:47:13.194Z,7.44
2023-03-31T09:48:48.394Z,7.31
2023-03-31T09:50:25.432Z,7.81
2023-03-31T09:51:47.861Z,7.49
2023-03-31T09:55:36.055Z,7.44
2023-03-31T09:57:09.023Z,6.94
2023-03-31T09:58:44.465Z,6.79
2023-03-31T10:00:28.084Z,7.57
2023-03-31T10:02:13.252Z,7.82
2023-03-31T10:03:58.283Z,7.57
2023-03-31T10:05:32.344Z,7.18
2023-03-31T10:07:13.233Z,7.15
2023-03-31T10:08:55.077Z,7.22
2023-03-31T10:10:26.263Z,7.48
2023-03-31T10:11:59.702Z,7.36
2023-03-31T10:13:33.275Z,6.79
2023-03-31T10:15:18.478Z,6.68
2023-03-31T10:16:58.740Z,6.81
2023-03-31T10:18:48.290Z,7.56
2023-03-31T10:20:28.706Z,7.41
2023-03-31T10:22:04.858Z,6.91
2023-03-31T10:23:58.329Z,7.13
2023-03-31T10:25:39.621Z,7.15
2023-03-31T10:27:12.728Z,7.66
2023-03-31T10:28:58.919Z,6.81
2023-03-31T10:30:43.962Z,6.95
2023-03-31T10:32:29.250Z,6.43
2023-03-31T10:34:11.620Z,5.88
2023-03-31T10:36:05.287Z,6.82
2023-03-31T10:37:41.091Z,7.04
2023-03-31T10:39:14.547Z,6.53
2023-03-31T10:40:59.831Z,6.68
2023-03-31T10:42:45.057Z,5.23
2023-03-31T10:44:25.662Z,4.75
2023-03-31T10:46:01.183Z,5.60
2023-03-31T10:47:25.053Z,5.49
2023-03-31T10:49:01.198Z,5.51
2023-03-31T10:50:34.426Z,6.08
2023-03-31T10:52:14.975Z,6.00
2023-03-31T10:53:48.733Z,6.07
2023-03-31T10:55:22.030Z,5.91
2023-03-31T10:56:44.706Z,5.84
2023-03-31T10:58:06.657Z,6.33
2023-03-31T10:59:36.643Z,5.99
2023-03-31T11:01:13.216Z,5.87
2023-03-31T11:02:59.000Z,6.03
2023-03-31T11:04:35.364Z,6.56
2023-03-31T11:06:12.159Z,11.22
2023-03-31T11:07:56.663Z,6.98
2023-03-31T11:09:30.074Z,6.45
2023-03-31T11:11:15.359Z,7.25
2023-03-31T11:13:04.873Z,7.64
2023-03-31T11:14:40.832Z,7.23
2023-03-31T11:16:26.476Z,6.07
2023-03-31T11:18:02.677Z,5.80
2023-03-31T11:19:48.845Z,5.98
2023-03-31T11:21:24.228Z,5.29
2023-03-31T11:23:06.793Z,5.82
2023-03-31T11:24:35.442Z,4.82
2023-03-31T11:26:20.481Z,4.97
2023-03-31T11:27:53.741Z,5.39
2023-03-31T11:29:30.909Z,5.52
2023-03-31T11:30:52.544Z,5.04
2023-03-31T11:32:31.217Z,5.09
2023-03-31T11:34:04.730Z,5.00
2023-03-31T11:35:38.494Z,4.84
2023-03-31T11:37:13.202Z,5.04
2023-03-31T11:38:54.228Z,4.76
2023-03-31T11:40:34.440Z,4.61
2023-03-31T11:42:27.700Z,4.89
2023-03-31T11:44:14.262Z,5.19
2023-03-31T11:45:59.453Z,4.52
2023-03-31T11:47:44.609Z,5.07
2023-03-31T11:49:17.972Z,5.12
2023-03-31T11:50:53.872Z,4.90
2023-03-31T11:54:29.497Z,4.65
2023-03-31T11:56:10.844Z,5.17
2023-03-31T11:58:04.023Z,5.69
2023-03-31T11:59:29.900Z,4.96
2023-03-31T12:01:15.175Z,4.82
2023-03-31T12:03:04.291Z,5.24
2023-03-31T12:04:37.726Z,4.81
2023-03-31T12:06:23.564Z,4.64
2023-03-31T12:07:48.109Z,4.36
2023-03-31T12:09:21.075Z,4.63
2023-03-31T12:10:59.149Z,4.33
2023-03-31T12:12:42.629Z,4.57
2023-03-31T12:14:18.044Z,4.32
2023-03-31T12:15:51.493Z,3.95
2023-03-31T12:17:36.370Z,4.58
2023-03-31T12:19:00.858Z,4.08
2023-03-31T12:20:41.734Z,4.03
2023-03-31T12:22:22.371Z,3.89
2023-03-31T12:23:58.570Z,3.78
2023-03-31T12:25:22.854Z,4.22
2023-03-31T12:27:03.915Z,4.51
2023-03-31T12:28:57.459Z,3.57
2023-03-31T12:30:42.920Z,3.58
2023-03-31T12:32:16.406Z,3.21
2023-03-31T12:33:59.593Z,3.42
2023-03-31T12:35:49.112Z,3.59
2023-03-31T12:37:31.077Z,3.16
2023-03-31T12:39:16.264Z,3.51
2023-03-31T12:41:10.608Z,3.63
2023-03-31T12:42:45.680Z,3.25
2023-03-31T12:44:26.295Z,3.25
2023-03-31T12:45:57.781Z,3.91
2023-03-31T12:47:42.634Z,3.50
2023-03-31T12:49:36.567Z,3.59
2023-03-31T12:51:13.242Z,3.19
2023-03-31T12:52:58.027Z,3.51
2023-03-31T12:54:31.082Z,3.27
2023-03-31T12:55:57.639Z,3.41
2023-03-31T12:57:19.357Z,3.76
2023-03-31T12:58:52.655Z,3.36
2023-03-31T13:00:37.916Z,3.01
2023-03-31T13:02:29.299Z,3.09
2023-03-31T13:04:15.832Z,3.05
2023-03-31T13:05:43.430Z,3.30
2023-03-31T13:07:27.941Z,4.31
2023-03-31T13:09:16.099Z,6.22
2023-03-31T13:10:51.853Z,4.91
2023-03-31T13:12:25.605Z,5.44
2023-03-31T13:14:00.809Z,5.35
2023-03-31T13:15:34.525Z,4.31
2023-03-31T13:17:09.963Z,4.00
2023-03-31T13:18:44.999Z,3.40
2023-03-31T13:20:20.390Z,4.96
2023-03-31T13:21:53.991Z,4.14
2023-03-31T13:23:30.494Z,3.00
2023-03-31T13:25:06.534Z,3.48
2023-03-31T13:26:30.769Z,3.03
2023-03-31T13:28:15.643Z,3.17
2023-03-31T13:30:09.231Z,2.77
2023-03-31T13:31:45.166Z,4.51
2023-03-31T13:33:18.371Z,3.14
2023-03-31T13:35:04.202Z,4.12
2023-03-31T13:36:27.980Z,3.63
2023-03-31T13:38:01.405Z,3.35
2023-03-31T13:39:54.792Z,3.67
2023-03-31T13:41:40.263Z,3.28
2023-03-31T13:43:09.086Z,4.39
2023-03-31T13:44:44.597Z,3.97
2023-03-31T13:46:29.484Z,3.97
2023-03-31T13:47:53.547Z,4.41
2023-03-31T13:49:24.809Z,4.26
2023-03-31T13:50:53.758Z,4.06
2023-03-31T13:52:34.327Z,4.47
2023-03-31T13:53:56.356Z,4.56
2023-03-31T13:55:31.525Z,6.38
2023-03-31T13:57:22.583Z,9.68
2023-03-31T13:59:14.512Z,4.70
2023-03-31T14:00:48.181Z,10.76
2023-03-31T14:02:30.727Z,3.76
2023-03-31T14:04:00.071Z,4.34
2023-03-31T14:05:36.202Z,4.43
2023-03-31T14:07:18.086Z,7.93
2023-03-31T14:09:04.606Z,6.52
2023-03-31T14:10:58.620Z,4.15
2023-03-31T14:12:40.078Z,3.52
2023-03-31T14:14:24.890Z,2.71
2023-03-31T14:15:58.505Z,4.68
2023-03-31T14:17:32.048Z,2.99
2023-03-31T14:19:17.056Z,5.19
2023-03-31T14:20:39.088Z,3.14
2023-03-31T14:22:07.862Z,3.23
2023-03-31T14:24:01.435Z,3.02
2023-03-31T14:25:56.578Z,2.84
2023-03-31T14:27:45.600Z,3.82
2023-03-31T14:29:20.650Z,3.12
2023-03-31T14:31:05.994Z,3.67
2023-03-31T14:32:51.813Z,3.80
2023-03-31T14:34:27.761Z,2.93
2023-03-31T14:36:01.860Z,4.45
2023-03-31T14:37:37.714Z,4.23
2023-03-31T14:39:22.937Z,3.19
2023-03-31T14:41:16.384Z,2.90
2023-03-31T14:43:01.496Z,2.97
2023-03-31T14:44:54.906Z,2.68
2023-03-31T14:46:35.627Z,3.91
2023-03-31T14:48:11.209Z,3.53
2023-03-31T14:49:56.879Z,2.91
2023-03-31T14:51:23.432Z,2.78
2023-03-31T14:53:08.100Z,3.16
2023-03-31T14:54:49.732Z,5.88
2023-03-31T14:56:44.629Z,5.28
2023-03-31T14:58:29.406Z,15.47
2023-03-31T14:59:53.574Z,5.38
2023-03-31T15:01:47.336Z,5.97
2023-03-31T15:05:31.903Z,2.28
2023-03-31T15:07:03.093Z,2.25
2023-03-31T15:08:57.291Z,2.49
2023-03-31T15:10:30.490Z,2.79
2023-03-31T15:12:11.972Z,3.68
2023-03-31T15:13:53.052Z,3.54
2023-03-31T15:15:56.618Z,5.05
2023-03-31T15:17:32.528Z,9.56
2023-03-31T15:19:01.960Z,7.52
2023-03-31T15:20:28.191Z,3.92
2023-03-31T15:22:01.581Z,4.82
2023-03-31T15:23:25.405Z,6.23
2023-03-31T15:24:49.554Z,6.02
2023-03-31T15:26:22.590Z,5.18
2023-03-31T15:28:10.980Z,3.86
2023-03-31T15:29:44.845Z,3.62
2023-03-31T15:31:20.431Z,4.80
2023-03-31T15:32:42.466Z,7.04
2023-03-31T15:34:28.979Z,7.15
2023-03-31T15:36:03.802Z,6.67
2023-03-31T15:37:55.317Z,6.74
2023-03-31T15:39:37.024Z,6.66
2023-03-31T15:41:06.461Z,6.42
2023-03-31T15:42:28.069Z,4.93
2023-03-31T15:43:59.323Z,4.84
2023-03-31T15:45:33.052Z,8.98
2023-03-31T15:47:08.917Z,7.99
2023-03-31T15:48:33.429Z,9.05
2023-03-31T15:50:08.130Z,7.95
2023-03-31T15:51:29.760Z,6.61
2023-03-31T15:52:53.142Z,9.70
2023-03-31T15:54:26.506Z,5.28
2023-03-31T15:56:02.110Z,4.88
2023-03-31T15:57:34.294Z,4.70
2023-03-31T15:59:19.550Z,7.45
2023-03-31T16:01:04.682Z,4.91
2023-03-31T16:02:36.689Z,3.21
2023-03-31T16:04:27.792Z,4.67
2023-03-31T16:06:04.155Z,6.60
2023-03-31T16:07:37.957Z,5.18
2023-03-31T16:09:21.974Z,5.75
2023-03-31T16:11:07.210Z,8.33
2023-03-31T16:13:00.978Z,10.04
2023-03-31T16:14:36.626Z,9.00
2023-03-31T16:16:01.206Z,9.12
2023-03-31T16:17:36.481Z,8.62
2023-03-31T16:19:04.096Z,8.32
2023-03-31T16:20:49.514Z,5.97
2023-03-31T16:22:36.499Z,6.55
2023-03-31T16:24:29.941Z,6.29
2023-03-31T16:26:05.451Z,7.84
2023-03-31T16:27:50.660Z,6.68
2023-03-31T16:29:23.642Z,5.64
2023-03-31T16:31:08.876Z,10.06
2023-03-31T16:32:55.053Z,30.89
2023-03-31T16:34:16.805Z,8.02
2023-03-31T16:35:50.144Z,5.90
2023-03-31T16:37:23.496Z,5.30
2023-03-31T16:39:15.753Z,5.20
2023-03-31T16:40:52.080Z,4.72
2023-03-31T16:42:45.639Z,4.69
2023-03-31T16:44:30.680Z,6.06
2023-03-31T16:46:15.911Z,6.19
2023-03-31T16:47:49.714Z,6.41
2023-03-31T16:49:23.140Z,6.31
2023-03-31T16:51:04.575Z,6.28
2023-03-31T16:52:50.052Z,4.96
2023-03-31T16:54:34.341Z,5.44
2023-03-31T16:55:59.319Z,6.17
2023-03-31T16:57:44.489Z,6.10
2023-03-31T16:59:23.232Z,5.34
2023-03-31T17:01:08.451Z,5.53
2023-03-31T17:03:01.973Z,6.45
2023-03-31T17:04:38.251Z,5.53
2023-03-31T17:06:22.981Z,4.53
2023-03-31T17:08:12.503Z,12.54
2023-03-31T17:09:49.672Z,7.02
2023-03-31T17:11:32.379Z,10.41
2023-03-31T17:13:09.191Z,8.38
2023-03-31T17:14:40.925Z,6.83
2023-03-31T17:16:32.907Z,9.50
2023-03-31T17:18:18.427Z,13.45
2023-03-31T17:20:01.285Z,12.66
2023-03-31T17:21:34.590Z,10.80
2023-03-31T17:23:19.451Z,9.95
2023-03-31T17:25:08.772Z,9.11
2023-03-31T17:26:39.349Z,8.41
2023-03-31T17:28:15.302Z,10.76
2023-03-31T17:30:00.887Z,9.51
2023-03-31T17:31:24.762Z,8.13
2023-03-31T17:33:10.378Z,7.94
2023-03-31T17:35:00.568Z,9.89
2023-03-31T17:36:45.591Z,8.09
2023-03-31T17:38:31.018Z,9.02
2023-03-31T17:40:12.972Z,8.45
2023-03-31T17:41:49.240Z,7.00
2023-03-31T17:43:29.406Z,7.60
2023-03-31T17:45:04.040Z,10.23
2023-03-31T17:46:52.112Z,7.87
2023-03-31T17:48:16.340Z,9.77
2023-03-31T17:49:51.846Z,9.85
2023-03-31T17:51:36.386Z,17.26
2023-03-31T17:53:18.195Z,9.67
2023-03-31T17:55:05.398Z,7.98
2023-03-31T17:56:59.087Z,6.12
2023-03-31T17:58:44.234Z,7.55
2023-03-31T18:00:08.880Z,18.26
2023-03-31T18:02:05.410Z,10.51
2023-03-31T18:03:47.448Z,12.60
2023-03-31T18:05:40.459Z,26.96
2023-03-31T18:07:25.906Z,12.99
2023-03-31T18:09:20.508Z,13.46
2023-03-31T18:13:07.866Z,14.60
2023-03-31T18:14:53.845Z,29.35
2023-03-31T18:21:33.478Z,14.62
2023-03-31T18:22:55.109Z,24.06
2023-03-31T18:32:16.404Z,8.99
2023-03-31T18:36:27.563Z,9.10
2023-03-31T18:38:09.312Z,12.16
2023-03-31T18:42:27.322Z,13.34
2023-03-31T18:43:58.679Z,50.17
2023-03-31T18:48:05.653Z,12.63
2023-03-31T18:55:05.837Z,14.43
2023-03-31T18:56:39.475Z,12.87
2023-03-31T18:58:51.797Z,18.65
2023-03-31T19:00:36.596Z,13.02
2023-03-31T19:02:21.651Z,16.02
2023-03-31T19:15:00.173Z,12.28
2023-03-31T19:21:44.069Z,16.30
2023-03-31T19:23:28.949Z,19.64
2023-03-31T19:25:13.940Z,26.17
2023-03-31T19:26:41.234Z,15.58
2023-03-31T19:28:04.112Z,13.57
2023-03-31T19:29:27.791Z,13.33
2023-03-31T19:31:08.927Z,13.81
2023-03-31T19:32:46.006Z,13.69
2023-03-31T19:34:19.748Z,13.87
2023-03-31T19:35:51.318Z,23.10
2023-03-31T19:37:41.075Z,39.41
2023-03-31T19:39:14.576Z,35.74
2023-03-31T19:40:54.725Z,32.63
2023-03-31T19:42:35.497Z,23.13
2023-03-31T19:44:16.796Z,21.90
2023-03-31T19:46:02.390Z,15.43
2023-03-31T19:47:56.377Z,14.86
2023-03-31T19:49:28.317Z,12.51
2023-03-31T19:50:52.979Z,19.55
2023-03-31T19:52:28.373Z,19.26
2023-03-31T19:53:57.881Z,33.83
2023-03-31T19:55:34.290Z,14.05
2023-03-31T19:57:01.787Z,13.37
2023-03-31T19:58:44.254Z,13.33
2023-03-31T20:00:19.941Z,20.11
2023-03-31T20:02:13.495Z,17.70
2023-03-31T20:04:07.256Z,17.50
2023-03-31T20:05:43.752Z,30.36
2023-03-31T20:07:17.946Z,15.69
2023-03-31T20:08:42.639Z,22.88
2023-03-31T20:10:19.450Z,15.02
2023-03-31T20:11:56.569Z,14.83
2023-03-31T20:13:49.974Z,13.26
2023-03-31T20:15:25.928Z,15.71
2023-03-31T20:17:03.499Z,16.37
2023-03-31T20:19:00.878Z,14.41
2023-03-31T20:20:55.694Z,14.79
2023-03-31T20:22:31.392Z,15.97
2023-03-31T20:24:18.285Z,15.88
2023-03-31T20:25:52.893Z,18.60
2023-03-31T20:27:17.130Z,16.92
2023-03-31T20:31:06.462Z,17.74
2023-03-31T20:32:40.455Z,18.39
2023-03-31T20:34:14.073Z,20.44
2023-03-31T20:35:48.490Z,18.61
2023-03-31T20:37:27.301Z,21.34
2023-03-31T20:39:04.176Z,16.91
2023-03-31T20:40:57.885Z,19.51
2023-03-31T20:42:43.327Z,16.45
2023-03-31T20:44:16.837Z,14.74
2023-03-31T20:46:04.970Z,14.71
2023-03-31T20:47:39.549Z,14.22
2023-03-31T20:49:13.452Z,15.70
2023-03-31T20:50:59.874Z,15.10
2023-03-31T20:52:23.869Z,15.59
2023-03-31T20:54:01.608Z,15.65
2023-03-31T20:55:37.195Z,14.94
2023-03-31T20:57:13.173Z,15.50
2023-03-31T20:58:48.598Z,18.31
2023-03-31T21:00:12.873Z,13.95
2023-03-31T21:01:54.059Z,14.25
2023-03-31T21:03:18.402Z,13.60
2023-03-31T21:04:54.606Z,15.42
2023-03-31T21:06:23.834Z,16.74
2023-03-31T21:08:09.462Z,13.97
2023-03-31T21:09:55.910Z,14.47
2023-03-31T21:11:37.125Z,12.67
2023-03-31T21:13:13.768Z,13.38
2023-03-31T21:15:11.660Z,13.50
2023-03-31T21:17:09.236Z,12.53
2023-03-31T21:19:04.633Z,11.92
2023-03-31T21:20:58.182Z,12.66
2023-03-31T21:22:20.565Z,12.90
2023-03-31T21:24:08.905Z,16.02
2023-03-31T21:25:42.302Z,14.31
2023-03-31T21:27:22.872Z,13.17
2023-03-31T21:29:00.141Z,13.57
2023-03-31T21:30:33.757Z,12.50
2023-03-31T21:32:08.468Z,12.57
2023-03-31T21:33:30.504Z,12.52
2023-03-31T21:34:54.674Z,14.12
2023-03-31T21:36:28.050Z,12.71
2023-03-31T21:38:21.584Z,12.40
2023-03-31T21:40:06.925Z,12.80
2023-03-31T21:41:30.772Z,13.06
2023-03-31T21:43:15.821Z,13.95
2023-03-31T21:45:07.474Z,15.47
2023-03-31T21:46:52.895Z,12.90
2023-03-31T21:48:28.659Z,12.54
2023-03-31T21:49:50.540Z,14.78
2023-03-31T21:51:25.236Z,18.83
2023-03-31T21:52:51.443Z,15.31
2023-03-31T21:54:26.384Z,14.64
2023-03-31T21:55:58.462Z,18.59
2023-03-31T21:57:20.297Z,14.59
2023-03-31T21:59:01.368Z,12.38
2023-03-31T22:00:47.973Z,12.44
2023-03-31T22:02:24.928Z,11.34
2023-03-31T22:04:18.699Z,12.23
2023-03-31T22:06:12.437Z,12.58
2023-03-31T22:07:58.526Z,12.43
2023-03-31T22:09:52.744Z,11.56
2023-03-31T22:11:28.385Z,12.49
2023-03-31T22:13:22.149Z,13.03
2023-03-31T22:14:46.503Z,12.39
2023-03-31T22:16:19.984Z,12.85
2023-03-31T22:17:56.360Z,14.11
2023-03-31T22:19:32.043Z,21.17
2023-03-31T22:21:17.385Z,16.65
2023-03-31T22:23:02.244Z,16.37
2023-03-31T22:24:31.378Z,13.81
2023-03-31T22:26:16.371Z,12.28
2023-03-31T22:27:50.047Z,15.69